North Chichester, New Hampshire
Current Conditions -  °F | °C
As of 3:51 PM on Thursday 23 Oct 2014 (Local Time) from KCON Reporting Station
Overcast Overcast  
Wind Chill: 51°   Ceiling: 1700
Heat Index: 51°   Visibility: 10mi
Dew Point: 47°   Wind: 10mph
Humidity: 86%   Direction: 30°NNE
Pressure: 29.72"   Gusts: 22mph
Location:  43.2528°N, 71.4017°W
Report Text: KCON 231951Z AUTO 03009G19KT 10SM OVC017 11/08 A2972 RMK AO2 SLP065 T01060083
Loading
Personal Weather Stations






























Interactive Weather Map
Tropical Storm Tracking
New forecast layout! Learn more

10-Day Weather Forecast

Advertisements
Track Severe Weather on mobile